Weather forecast for Pikuj

Ukraine, 966 m
N48.830, E23.005


Sounding

Red line — air temperature ˚C.
Blue line — thermal bubble temperature ˚C.
Green line — dew point temperature ˚C.
Wind speed is in meters per second.

Table forecast

GFS 0.25˚ model

temp. wind gust humid. clouds prec. press. hpbl
Sun21 00:00 -3 200.0 ssw 2 6 97 100 1.4 1012 505
03:00 -3 210.0 ssw 2 5 98 100 3.9 1011 341
06:00 -3 188.0 s 2 5 98 100 1.7 1010 321
09:00 -4 134.0 se 1 3 97 99 2.2 1009 115
12:00 -2 99.0 e 1 2 89 99 0.3 1009 197
15:00 -1 75.0 ene 1 2 87 99 1.0 1007 360
18:00 -2 42.0 ne 2 2 95 100 1.1 1008 62
21:00 -3 27.0 nne 2 2 96 100 2.5 1009 98
 
Mon22 00:00 -4 27.0 nne 3 7 93 100 0.9 1011 397
03:00 -4 36.0 ne 4 12 88 100 1.3 1012 673
06:00 -4 31.0 nne 4 12 88 97 0.1 1013 777
09:00 -4 33.0 nne 4 10 87 94 0.2 1014 825
12:00 -3 39.0 ne 5 9 81 80 0.1 1016 989
15:00 -2 38.0 ne 4 8 79 67 0.1 1016 881
18:00 -5 39.0 ne 3 7 88 16 0.0 1017 208
21:00 -6 37.0 ne 2 3 91 27 0.0 1020 72
 
Tue23 00:00 -7 42.0 ne 2 3 93 83 0.0 1022 31
03:00 -8 42.0 ne 2 2 93 80 0.0 1023 24
06:00 -9 47.0 ne 2 2 93 70 0.0 1024 21
09:00 -10 51.0 ne 2 2 92 54 0.0 1026 21
12:00 -4 58.0 ene 1 2 83 25 0.0 1028 186
15:00 -1 193.0 ssw 0 1 76 55 0.0 1029 469
18:00 -6 7.0 n 0 0 89 81 0.0 1030 21
21:00 -8 63.0 ene 1 1 91 41 0.0 1033 21
 
Wed24 00:00 -8 98.0 e 1 1 90 0 0.0 1034 21
03:00 -9 121.0 ese 1 1 90 6 0.0 1035 21
06:00 -9 127.0 se 1 1 90 28 0.0 1035 21
09:00 -9 134.0 se 1 2 89 14 0.0 1036 21
12:00 -4 181.0 s 2 3 83 0 0.0 1036 218
15:00 -2 192.0 ssw 2 4 80 0 0.0 1035 435
18:00 -6 183.0 s 2 2 93 0 0.0 1035 21
21:00 -8 159.0 sse 1 2 92 0 0.0 1035 21
 
Thu25 00:00 -8 155.0 sse 1 2 91 0 0.0 1034 21
03:00 -9 158.0 sse 1 2 92 0 0.0 1034 21
06:00 -9 142.0 se 1 2 92 0 0.0 1032 21
09:00 -8 135.0 se 1 1 90 0 0.0 1031 21
12:00 -2 181.0 s 1 2 81 0 0.0 1030 158
15:00 -0 209.0 ssw 1 2 82 0 0.0 1027 254
18:00 -4 188.0 s 1 1 90 0 0.0 1027 21
21:00 -6 119.0 ese 1 1 87 0 0.0 1027 21
 

0.035 s